Time;durP1;ratioP1;P1;durP2;ratioP2;P2;SDS_P1;SDS_P2;PMS_P1;PMS_P2;Temp;Humidity;BMP_temperature;BMP_pressure;BME280_temperature;BME280_humidity;BME280_pressure;Samples;Min_cycle;Max_cycle;Signal;HPM_P1;HPM_P2
2022/11/06 00:00:17;;;;;;;;;;;;;;;;;;1045092;28;2308;-56
2022/11/06 00:01:04;;;;;;;;;;;;;;;;;;1049567;28;2238;-52
2022/11/06 00:01:44;;;;;;;;;;;;;;;;;;1048676;28;1988;-57
2022/11/06 00:02:15;;;;;;;;;;;;;;;;;;1053794;28;2161;-55
2022/11/06 00:02:45;;;;;;;;;;;;;;;;;;1054632;28;3072;-55
2022/11/06 00:03:15;;;;;;;;;;;;;;;;;;1050450;28;2558;-54
2022/11/06 00:03:45;;;;;;;;;;;;;;;;;;1046730;28;1709;-56
2022/11/06 00:04:16;;;;;;;;;;;;;;;;;;1045451;28;2410;-52
2022/11/06 00:04:46;;;;;;;;;;;;;;;;;;1042898;28;1772;-52
2022/11/06 00:06:55;;;;;;;;;;;;;;;;;;1052115;28;1763;-56
2022/11/06 00:07:25;;;;;;;;;;;;;;;;;;1053645;28;1962;-55
2022/11/06 00:07:55;;;;;;;;;;;;;;;;;;1054712;28;2200;-56
2022/11/06 00:08:27;;;;;;;;;;;;;;;;;;1054868;28;2032;-56
2022/11/06 00:08:58;;;;;;;;;;;;;;;;;;1054161;28;2041;-55
2022/11/06 00:09:28;;;;;;;;;;;;;;;;;;1049384;28;1622;-55
2022/11/06 00:09:58;;;;;;;;;;;;;;;;;;1050607;28;1697;-56
2022/11/06 00:10:30;;;;;;;;;;;;;;;;;;1050794;28;1686;-54
2022/11/06 00:11:00;;;;;;;;;;;;;;;;;;1049642;28;2051;-58
2022/11/06 00:11:30;;;;;;;;;;;;;;;;;;1054881;28;2023;-55
2022/11/06 00:12:01;;;;;;;;;;;;;;;;;;1050173;28;2391;-56
2022/11/06 00:12:31;;;;;;;;;;;;;;;;;;1045479;28;1855;-54
2022/11/06 00:13:02;;;;;;;;;;;;;;;;;;1046198;28;2359;-56
2022/11/06 00:13:32;;;;;;;;;;;;;;;;;;1046137;28;1777;-53
2022/11/06 00:14:03;;;;;;;;;;;;;;;;;;1048355;28;1924;-59
2022/11/06 00:14:33;;;;;;;;;;;;;;;;;;1054732;28;2435;-51
2022/11/06 00:15:04;;;;;;;;;;;;;;;;;;1054408;28;1942;-53
2022/11/06 00:15:34;;;;;;;;;;;;;;;;;;1054381;28;2263;-55
2022/11/06 00:16:06;;;;;;;;;;;;;;;;;;1054801;28;2024;-58
2022/11/06 00:16:37;;;;;;;;;;;;;;;;;;1055322;28;1409;-56
2022/11/06 00:17:08;;;;;;;;;;;;;;;;;;1050741;28;1701;-59
2022/11/06 00:17:38;;;;;;;;;;;;;;;;;;1049059;28;2482;-56
2022/11/06 00:18:08;;;;;;;;;;;;;;;;;;1046081;28;2097;-51
2022/11/06 00:18:40;;;;;;;;;;;;;;;;;;1046679;28;1811;-58
2022/11/06 00:19:10;;;;;;;;;;;;;;;;;;1050279;28;2027;-59
2022/11/06 00:19:40;;;;;;;;;;;;;;;;;;1050351;28;2962;-57
2022/11/06 00:20:11;;;;;;;;;;;;;;;;;;1050168;28;1979;-58
2022/11/06 00:20:41;;;;;;;;;;;;;;;;;;1050717;28;1904;-56
2022/11/06 00:21:12;;;;;;;;;;;;;;;;;;1049084;28;2069;-52
2022/11/06 00:21:43;;;;;;;;;;;;;;;;;;1051186;28;1398;-53
2022/11/06 00:22:15;;;;;;;;;;;;;;;;;;1054597;28;1943;-55
2022/11/06 00:22:45;;;;;;;;;;;;;;;;;;1048227;28;2592;-57
2022/11/06 00:23:15;;;;;;;;;;;;;;;;;;1050445;28;1937;-58
2022/11/06 00:23:46;;;;;;;;;;;;;;;;;;1050542;28;2947;-56
2022/11/06 00:24:16;;;;;;;;;;;;;;;;;;1050286;28;1853;-56
2022/11/06 00:24:48;;;;;;;;;;;;;;;;;;1053271;28;2176;-55
2022/11/06 00:25:18;;;;;;;;;;;;;;;;;;1048288;28;2440;-56
2022/11/06 00:25:51;;;;;;;;;;;;;;;;;;1049686;28;2386;-58
2022/11/06 00:26:23;;;;;;;;;;;;;;;;;;1046087;28;1856;-52
2022/11/06 00:26:53;;;;;;;;;;;;;;;;;;1042168;28;2285;-56
2022/11/06 00:27:23;;;;;;;;;;;;;;;;;;1040246;28;2386;-54
2022/11/06 00:27:56;;;;;;;;;;;;;;;;;;1042645;28;1999;-55
2022/11/06 00:28:26;;;;;;;;;;;;;;;;;;1045027;28;2827;-57
2022/11/06 00:28:57;;;;;;;;;;;;;;;;;;1051312;28;1987;-56
2022/11/06 00:29:27;;;;;;;;;;;;;;;;;;1050225;28;2649;-52
2022/11/06 00:29:58;;;;;;;;;;;;;;;;;;1051286;28;1890;-56
2022/11/06 00:30:28;;;;;;;;;;;;;;;;;;1044848;28;2198;-52
2022/11/06 00:31:06;;;;;;;;;;;;;;;;;;1046776;28;1869;-54
2022/11/06 00:31:36;;;;;;;;;;;;;;;;;;1048781;28;2189;-51
2022/11/06 00:32:06;;;;;;;;;;;;;;;;;;1051428;28;1862;-57
2022/11/06 00:32:37;;;;;;;;;;;;;;;;;;1049762;28;2291;-56
2022/11/06 00:33:09;;;;;;;;;;;;;;;;;;1050580;28;1612;-54
2022/11/06 00:33:39;;;;;;;;;;;;;;;;;;1046640;28;1675;-57
2022/11/06 00:34:10;;;;;;;;;;;;;;;;;;1044914;28;3877;-54
2022/11/06 00:34:40;;;;;;;;;;;;;;;;;;1049875;28;2036;-59
2022/11/06 00:35:11;;;;;;;;;;;;;;;;;;1050437;28;1719;-54
2022/11/06 00:35:41;;;;;;;;;;;;;;;;;;1055182;28;1838;-56
2022/11/06 00:36:12;;;;;;;;;;;;;;;;;;1048562;28;1797;-56
2022/11/06 00:36:49;;;;;;;;;;;;;;;;;;1050581;28;1724;-56
2022/11/06 00:37:20;;;;;;;;;;;;;;;;;;1045647;28;1887;-55
2022/11/06 00:37:50;;;;;;;;;;;;;;;;;;1042408;28;2554;-53
2022/11/06 00:38:21;;;;;;;;;;;;;;;;;;1041115;28;2422;-53
2022/11/06 00:38:52;;;;;;;;;;;;;;;;;;1042585;28;2376;-52
2022/11/06 00:39:22;;;;;;;;;;;;;;;;;;1045708;28;2098;-58
2022/11/06 00:39:52;;;;;;;;;;;;;;;;;;1042305;28;1372;-55
2022/11/06 00:40:23;;;;;;;;;;;;;;;;;;1045744;28;1797;-57
2022/11/06 00:40:53;;;;;;;;;;;;;;;;;;1046314;28;1720;-55
2022/11/06 00:41:23;;;;;;;;;;;;;;;;;;1049888;28;2142;-59
2022/11/06 00:41:54;;;;;;;;;;;;;;;;;;1055014;28;1598;-50
2022/11/06 00:42:24;;;;;;;;;;;;;;;;;;1053215;28;1989;-54
2022/11/06 00:42:55;;;;;;;;;;;;;;;;;;1055191;28;2041;-54
2022/11/06 00:43:39;;;;;;;;;;;;;;;;;;1052793;28;2032;-55
2022/11/06 00:44:16;;;;;;;;;;;;;;;;;;1050078;28;1677;-55
2022/11/06 00:44:46;;;;;;;;;;;;;;;;;;1050845;28;2208;-57
2022/11/06 00:45:17;;;;;;;;;;;;;;;;;;1049838;28;1787;-56
2022/11/06 00:45:47;;;;;;;;;;;;;;;;;;1045892;28;1909;-55
2022/11/06 00:46:17;;;;;;;;;;;;;;;;;;1046928;28;2036;-53
2022/11/06 00:46:48;;;;;;;;;;;;;;;;;;1045372;28;2024;-55
2022/11/06 00:47:18;;;;;;;;;;;;;;;;;;1048758;28;1998;-55
2022/11/06 00:47:48;;;;;;;;;;;;;;;;;;1049689;28;2365;-56
2022/11/06 00:48:18;;;;;;;;;;;;;;;;;;1050578;28;2373;-55
2022/11/06 00:48:49;;;;;;;;;;;;;;;;;;1049026;28;2411;-56
2022/11/06 00:49:19;;;;;;;;;;;;;;;;;;1051269;28;1400;-52
2022/11/06 00:49:49;;;;;;;;;;;;;;;;;;1049856;28;2088;-50
2022/11/06 00:50:20;;;;;;;;;;;;;;;;;;1050701;28;1969;-56
2022/11/06 00:50:50;;;;;;;;;;;;;;;;;;1051086;28;2035;-53
2022/11/06 00:51:21;;;;;;;;;;;;;;;;;;1048364;28;2144;-56
2022/11/06 00:51:52;;;;;;;;;;;;;;;;;;1050706;28;1716;-55
2022/11/06 00:52:23;;;;;;;;;;;;;;;;;;1049487;28;2517;-54
2022/11/06 00:52:56;;;;;;;;;;;;;;;;;;1046255;28;1894;-59
2022/11/06 00:53:26;;;;;;;;;;;;;;;;;;1045262;28;2435;-57
2022/11/06 00:54:01;;;;;;;;;;;;;;;;;;1046744;28;1601;-59
2022/11/06 00:54:31;;;;;;;;;;;;;;;;;;1041542;28;1787;-57
2022/11/06 00:55:01;;;;;;;;;;;;;;;;;;1043056;28;1673;-57
2022/11/06 00:55:32;;;;;;;;;;;;;;;;;;1046035;28;1791;-56
2022/11/06 00:56:06;;;;;;;;;;;;;;;;;;1042425;28;1738;-56
2022/11/06 00:56:36;;;;;;;;;;;;;;;;;;1046383;28;1901;-59
2022/11/06 00:57:06;;;;;;;;;;;;;;;;;;1045816;28;1895;-57
2022/11/06 00:57:37;;;;;;;;;;;;;;;;;;1046830;28;1699;-54
2022/11/06 00:58:07;;;;;;;;;;;;;;;;;;1050187;28;1962;-52
2022/11/06 00:58:38;;;;;;;;;;;;;;;;;;1045486;28;1998;-52
2022/11/06 00:59:10;;;;;;;;;;;;;;;;;;1045031;28;2824;-55
2022/11/06 00:59:40;;;;;;;;;;;;;;;;;;1045286;28;1687;-52
2022/11/06 01:00:11;;;;;;;;;;;;;;;;;;1045907;28;3026;-56
2022/11/06 01:00:41;;;;;;;;;;;;;;;;;;1051004;28;2203;-54
2022/11/06 01:01:19;;;;;;;;;;;;;;;;;;1049844;28;2370;-59
2022/11/06 01:01:50;;;;;;;;;;;;;;;;;;1049901;28;2119;-55
2022/11/06 01:02:20;;;;;;;;;;;;;;;;;;1046049;28;1725;-57
2022/11/06 01:02:50;;;;;;;;;;;;;;;;;;1042078;28;2101;-52
2022/11/06 01:03:20;;;;;;;;;;;;;;;;;;1042449;28;1646;-59
2022/11/06 01:03:52;;;;;;;;;;;;;;;;;;1046503;28;2165;-57
2022/11/06 01:04:23;;;;;;;;;;;;;;;;;;1050529;28;2059;-54
2022/11/06 01:04:53;;;;;;;;;;;;;;;;;;1048977;28;3129;-56
2022/11/06 01:05:23;;;;;;;;;;;;;;;;;;1050633;28;1930;-56
2022/11/06 01:05:53;;;;;;;;;;;;;;;;;;1050785;28;1680;-53
2022/11/06 01:06:25;;;;;;;;;;;;;;;;;;1049672;28;2093;-55
2022/11/06 01:06:55;;;;;;;;;;;;;;;;;;1051030;28;2433;-57
2022/11/06 01:07:26;;;;;;;;;;;;;;;;;;1050144;28;2060;-54
2022/11/06 01:07:56;;;;;;;;;;;;;;;;;;1050811;28;1796;-59
2022/11/06 01:08:26;;;;;;;;;;;;;;;;;;1048425;28;1680;-60
2022/11/06 01:08:57;;;;;;;;;;;;;;;;;;1051181;28;1722;-55
2022/11/06 01:09:27;;;;;;;;;;;;;;;;;;1049617;28;2095;-56
2022/11/06 01:09:57;;;;;;;;;;;;;;;;;;1050538;28;2201;-54
2022/11/06 01:10:28;;;;;;;;;;;;;;;;;;1048083;28;2050;-55
2022/11/06 01:11:04;;;;;;;;;;;;;;;;;;1041447;28;2328;-57
2022/11/06 01:11:36;;;;;;;;;;;;;;;;;;1040901;28;2347;-58
2022/11/06 01:12:13;;;;;;;;;;;;;;;;;;1043412;28;2156;-57
2022/11/06 01:12:44;;;;;;;;;;;;;;;;;;1046519;28;1430;-56
2022/11/06 01:13:16;;;;;;;;;;;;;;;;;;1042655;28;1772;-56
2022/11/06 01:13:48;;;;;;;;;;;;;;;;;;1046900;28;2289;-57
2022/11/06 01:14:18;;;;;;;;;;;;;;;;;;1044913;28;2277;-54
2022/11/06 01:14:49;;;;;;;;;;;;;;;;;;1045009;28;2785;-52
2022/11/06 01:15:19;;;;;;;;;;;;;;;;;;1049034;28;2318;-53
2022/11/06 01:15:49;;;;;;;;;;;;;;;;;;1050990;28;1642;-56
2022/11/06 01:16:20;;;;;;;;;;;;;;;;;;1050588;28;2011;-55
2022/11/06 01:16:50;;;;;;;;;;;;;;;;;;1049562;28;2534;-59
2022/11/06 01:17:21;;;;;;;;;;;;;;;;;;1050940;28;2056;-56
2022/11/06 01:17:51;;;;;;;;;;;;;;;;;;1049792;28;1781;-58
2022/11/06 01:18:21;;;;;;;;;;;;;;;;;;1050618;28;1684;-58
2022/11/06 01:18:52;;;;;;;;;;;;;;;;;;1045042;28;2234;-53
2022/11/06 01:19:22;;;;;;;;;;;;;;;;;;1051002;28;1976;-54
2022/11/06 01:19:52;;;;;;;;;;;;;;;;;;1049764;28;2444;-54
2022/11/06 01:20:22;;;;;;;;;;;;;;;;;;1049630;28;2441;-57
2022/11/06 01:20:53;;;;;;;;;;;;;;;;;;1050741;28;2352;-55
2022/11/06 01:21:24;;;;;;;;;;;;;;;;;;1051349;28;2817;-51
2022/11/06 01:21:55;;;;;;;;;;;;;;;;;;1050865;28;2166;-56
2022/11/06 01:22:25;;;;;;;;;;;;;;;;;;1050106;28;2612;-56
2022/11/06 01:22:55;;;;;;;;;;;;;;;;;;1050384;28;1952;-54
2022/11/06 01:23:25;;;;;;;;;;;;;;;;;;1050433;28;1575;-56
2022/11/06 01:23:57;;;;;;;;;;;;;;;;;;1050025;28;1847;-55
2022/11/06 01:24:28;;;;;;;;;;;;;;;;;;1047607;28;2965;-57
2022/11/06 01:24:58;;;;;;;;;;;;;;;;;;1049717;28;2458;-54
2022/11/06 01:25:28;;;;;;;;;;;;;;;;;;1050513;28;2747;-51
2022/11/06 01:25:59;;;;;;;;;;;;;;;;;;1048607;28;1740;-55
2022/11/06 01:26:30;;;;;;;;;;;;;;;;;;1048414;28;2952;-56
2022/11/06 01:27:00;;;;;;;;;;;;;;;;;;1050241;28;1947;-54
2022/11/06 01:27:30;;;;;;;;;;;;;;;;;;1051195;28;1688;-55
2022/11/06 01:28:00;;;;;;;;;;;;;;;;;;1049227;28;2697;-55
2022/11/06 01:28:31;;;;;;;;;;;;;;;;;;1047431;28;2459;-56
2022/11/06 01:29:02;;;;;;;;;;;;;;;;;;1050015;28;2417;-59
2022/11/06 01:29:33;;;;;;;;;;;;;;;;;;1050567;28;2128;-56
2022/11/06 01:30:03;;;;;;;;;;;;;;;;;;1050604;28;2060;-55
2022/11/06 01:30:37;;;;;;;;;;;;;;;;;;1049517;28;1741;-58
2022/11/06 01:31:11;;;;;;;;;;;;;;;;;;1050224;28;2453;-55
2022/11/06 01:31:42;;;;;;;;;;;;;;;;;;1050374;28;2954;-56
2022/11/06 01:32:12;;;;;;;;;;;;;;;;;;1046757;28;2553;-55
2022/11/06 01:32:42;;;;;;;;;;;;;;;;;;1049527;28;2154;-52
2022/11/06 01:33:13;;;;;;;;;;;;;;;;;;1051212;28;1725;-56
2022/11/06 01:33:43;;;;;;;;;;;;;;;;;;1050064;28;2174;-55
2022/11/06 01:34:13;;;;;;;;;;;;;;;;;;1049309;28;2227;-54
2022/11/06 01:34:43;;;;;;;;;;;;;;;;;;1048424;28;2565;-51
2022/11/06 01:35:14;;;;;;;;;;;;;;;;;;1050992;28;1960;-54
2022/11/06 01:35:48;;;;;;;;;;;;;;;;;;1051169;28;2100;-55
2022/11/06 01:36:19;;;;;;;;;;;;;;;;;;1047146;28;2699;-55
2022/11/06 01:36:49;;;;;;;;;;;;;;;;;;1049939;28;2069;-58
2022/11/06 01:37:19;;;;;;;;;;;;;;;;;;1046483;28;1804;-57
2022/11/06 01:37:50;;;;;;;;;;;;;;;;;;1046244;28;1692;-52
2022/11/06 01:38:20;;;;;;;;;;;;;;;;;;1045354;28;2142;-53
2022/11/06 01:38:51;;;;;;;;;;;;;;;;;;1050762;28;1401;-54
2022/11/06 01:39:21;;;;;;;;;;;;;;;;;;1050618;28;1679;-53
2022/11/06 01:39:52;;;;;;;;;;;;;;;;;;1050859;28;1836;-54
2022/11/06 01:40:22;;;;;;;;;;;;;;;;;;1049674;28;2141;-54
2022/11/06 01:40:52;;;;;;;;;;;;;;;;;;1046608;28;1693;-54
2022/11/06 01:41:25;;;;;;;;;;;;;;;;;;1046257;28;1918;-53
2022/11/06 01:41:55;;;;;;;;;;;;;;;;;;1044654;28;1740;-56
2022/11/06 01:42:25;;;;;;;;;;;;;;;;;;1049125;28;2139;-55
2022/11/06 01:42:55;;;;;;;;;;;;;;;;;;1050783;28;2344;-51
2022/11/06 01:43:58;;;;;;;;;;;;;;;;;;1051235;28;1872;-59
2022/11/06 01:44:41;;;;;;;;;;;;;;;;;;1050389;28;1640;-56
2022/11/06 01:45:24;;;;;;;;;;;;;;;;;;1050118;28;2029;-56
2022/11/06 01:45:54;;;;;;;;;;;;;;;;;;1049377;28;2281;-55
2022/11/06 01:46:26;;;;;;;;;;;;;;;;;;1049975;28;2306;-55
2022/11/06 01:46:56;;;;;;;;;;;;;;;;;;1052515;28;2956;-54
2022/11/06 01:47:28;;;;;;;;;;;;;;;;;;1054661;28;1966;-58
2022/11/06 01:47:58;;;;;;;;;;;;;;;;;;1054466;28;1565;-58
2022/11/06 01:48:28;;;;;;;;;;;;;;;;;;1054705;28;1984;-53
2022/11/06 01:49:10;;;;;;;;;;;;;;;;;;1048494;28;2627;-55
2022/11/06 01:49:40;;;;;;;;;;;;;;;;;;1043313;28;1606;-54
2022/11/06 01:50:11;;;;;;;;;;;;;;;;;;1041624;28;1847;-54
2022/11/06 01:50:43;;;;;;;;;;;;;;;;;;1039758;28;1798;-57
2022/11/06 01:51:13;;;;;;;;;;;;;;;;;;1042031;28;2270;-61
2022/11/06 01:51:46;;;;;;;;;;;;;;;;;;1050486;28;1648;-58
2022/11/06 01:52:18;;;;;;;;;;;;;;;;;;1048090;28;2084;-54
2022/11/06 01:52:49;;;;;;;;;;;;;;;;;;1054568;28;2077;-55
2022/11/06 01:53:20;;;;;;;;;;;;;;;;;;1049832;28;2195;-56
2022/11/06 01:53:50;;;;;;;;;;;;;;;;;;1050481;28;1721;-57
2022/11/06 01:54:22;;;;;;;;;;;;;;;;;;1049608;28;1645;-53
2022/11/06 01:54:55;;;;;;;;;;;;;;;;;;1050535;28;1609;-50
2022/11/06 01:55:28;;;;;;;;;;;;;;;;;;1049924;28;1746;-53
2022/11/06 01:56:00;;;;;;;;;;;;;;;;;;1046736;28;1743;-54
2022/11/06 01:56:31;;;;;;;;;;;;;;;;;;1045812;28;2240;-56
2022/11/06 01:57:02;;;;;;;;;;;;;;;;;;1047211;28;2632;-53
2022/11/06 01:57:32;;;;;;;;;;;;;;;;;;1050785;28;2992;-58
2022/11/06 01:58:03;;;;;;;;;;;;;;;;;;1054759;28;1999;-56
2022/11/06 01:58:35;;;;;;;;;;;;;;;;;;1055397;28;1818;-50
2022/11/06 01:59:06;;;;;;;;;;;;;;;;;;1054454;28;2031;-56
2022/11/06 01:59:38;;;;;;;;;;;;;;;;;;1054739;28;1586;-55
2022/11/06 02:00:09;;;;;;;;;;;;;;;;;;1053017;28;2918;-49
2022/11/06 02:00:40;;;;;;;;;;;;;;;;;;1046176;28;1964;-55
2022/11/06 02:01:10;;;;;;;;;;;;;;;;;;1040779;28;2129;-52
2022/11/06 02:01:40;;;;;;;;;;;;;;;;;;1042315;28;1933;-53
2022/11/06 02:02:11;;;;;;;;;;;;;;;;;;1041255;28;1971;-56
2022/11/06 02:02:42;;;;;;;;;;;;;;;;;;1050294;28;1735;-52
2022/11/06 02:03:12;;;;;;;;;;;;;;;;;;1053668;28;2176;-52
2022/11/06 02:03:52;;;;;;;;;;;;;;;;;;1054068;28;2257;-58
2022/11/06 02:04:22;;;;;;;;;;;;;;;;;;1053728;28;1753;-53
2022/11/06 02:04:52;;;;;;;;;;;;;;;;;;1053967;28;1599;-56
2022/11/06 02:05:22;;;;;;;;;;;;;;;;;;1055056;28;1572;-54
2022/11/06 02:05:53;;;;;;;;;;;;;;;;;;1055224;28;1706;-57
2022/11/06 02:06:31;;;;;;;;;;;;;;;;;;1048883;28;2205;-59
2022/11/06 02:07:01;;;;;;;;;;;;;;;;;;1048980;28;2072;-58
2022/11/06 02:07:32;;;;;;;;;;;;;;;;;;1049340;28;2089;-57
2022/11/06 02:08:02;;;;;;;;;;;;;;;;;;1049803;28;1828;-55
2022/11/06 02:08:33;;;;;;;;;;;;;;;;;;1052771;28;2051;-53
2022/11/06 02:09:10;;;;;;;;;;;;;;;;;;1053454;28;3340;-58
2022/11/06 02:09:40;;;;;;;;;;;;;;;;;;1054797;28;1700;-55
2022/11/06 02:10:10;;;;;;;;;;;;;;;;;;1053626;28;1525;-52
2022/11/06 02:10:41;;;;;;;;;;;;;;;;;;1054919;28;1851;-55
2022/11/06 02:11:11;;;;;;;;;;;;;;;;;;1054523;28;1998;-57
2022/11/06 02:11:43;;;;;;;;;;;;;;;;;;1053418;28;2086;-54
2022/11/06 02:12:13;;;;;;;;;;;;;;;;;;1054399;28;1991;-55
2022/11/06 02:13:04;;;;;;;;;;;;;;;;;;1055543;28;1352;-55
2022/11/06 02:13:52;;;;;;;;;;;;;;;;;;1039809;28;1700;-58
2022/11/06 02:14:27;;;;;;;;;;;;;;;;;;1052377;28;1972;-55
2022/11/06 02:15:00;;;;;;;;;;;;;;;;;;1048971;28;2770;-58
2022/11/06 02:15:54;;;;;;;;;;;;;;;;;;1048811;28;2716;-57
2022/11/06 02:16:44;;;;;;;;;;;;;;;;;;1046118;28;2471;-54
2022/11/06 02:17:40;;;;;;;;;;;;;;;;;;1052994;28;2393;-53
2022/11/06 02:18:10;;;;;;;;;;;;;;;;;;1048983;28;2078;-54
2022/11/06 02:18:49;;;;;;;;;;;;;;;;;;1047948;28;2474;-54
2022/11/06 02:19:38;;;;;;;;;;;;;;;;;;1054126;28;1691;-50
2022/11/06 02:20:27;;;;;;;;;;;;;;;;;;1054579;28;1996;-55
2022/11/06 02:21:16;;;;;;;;;;;;;;;;;;1054164;28;1646;-53
2022/11/06 02:21:57;;;;;;;;;;;;;;;;;;1049183;28;2090;-55
2022/11/06 02:22:27;;;;;;;;;;;;;;;;;;1049530;28;2437;-54
2022/11/06 02:22:57;;;;;;;;;;;;;;;;;;1046012;28;2529;-57
2022/11/06 02:23:46;;;;;;;;;;;;;;;;;;1042872;28;1663;-55
2022/11/06 02:24:38;;;;;;;;;;;;;;;;;;1037695;28;3165;-57
2022/11/06 02:25:26;;;;;;;;;;;;;;;;;;1042416;28;1910;-55
2022/11/06 02:26:07;;;;;;;;;;;;;;;;;;1045910;28;2034;-56
2022/11/06 02:26:56;;;;;;;;;;;;;;;;;;1053081;28;2495;-54
2022/11/06 02:27:27;;;;;;;;;;;;;;;;;;1051997;28;2430;-53
2022/11/06 02:28:02;;;;;;;;;;;;;;;;;;1051650;28;2365;-56
2022/11/06 02:28:46;;;;;;;;;;;;;;;;;;1051662;28;2512;-54
2022/11/06 02:29:19;;;;;;;;;;;;;;;;;;1053649;28;2843;-55
2022/11/06 02:29:56;;;;;;;;;;;;;;;;;;1051423;28;2974;-54
2022/11/06 02:30:26;;;;;;;;;;;;;;;;;;1053409;28;2090;-53
2022/11/06 02:30:58;;;;;;;;;;;;;;;;;;1053572;28;2499;-54
2022/11/06 02:31:31;;;;;;;;;;;;;;;;;;1054315;28;2753;-57
2022/11/06 02:32:05;;;;;;;;;;;;;;;;;;1053121;28;2221;-57
2022/11/06 02:32:41;;;;;;;;;;;;;;;;;;1047607;28;2478;-53
2022/11/06 02:33:14;;;;;;;;;;;;;;;;;;1046353;28;2571;-58
2022/11/06 02:33:47;;;;;;;;;;;;;;;;;;1049615;28;1625;-55
2022/11/06 02:34:18;;;;;;;;;;;;;;;;;;1050114;28;2199;-56
2022/11/06 02:34:50;;;;;;;;;;;;;;;;;;1051990;28;3789;-55
2022/11/06 02:35:27;;;;;;;;;;;;;;;;;;1050425;28;1752;-58
2022/11/06 02:36:01;;;;;;;;;;;;;;;;;;1049110;28;1631;-54
2022/11/06 02:36:34;;;;;;;;;;;;;;;;;;1043888;28;2234;-52
2022/11/06 02:37:08;;;;;;;;;;;;;;;;;;1046917;28;2484;-54
2022/11/06 02:37:41;;;;;;;;;;;;;;;;;;1046160;28;2440;-58
2022/11/06 02:38:13;;;;;;;;;;;;;;;;;;1047822;28;1648;-55
2022/11/06 02:38:46;;;;;;;;;;;;;;;;;;1042403;28;2405;-56
2022/11/06 02:39:18;;;;;;;;;;;;;;;;;;1042992;28;2327;-58
2022/11/06 02:39:50;;;;;;;;;;;;;;;;;;1047285;28;2207;-59
2022/11/06 02:40:22;;;;;;;;;;;;;;;;;;1047634;28;2068;-55
2022/11/06 02:40:54;;;;;;;;;;;;;;;;;;1055845;28;1940;-55
2022/11/06 02:41:25;;;;;;;;;;;;;;;;;;1047909;28;2222;-58
2022/11/06 02:41:58;;;;;;;;;;;;;;;;;;1048557;28;2255;-56
2022/11/06 02:42:28;;;;;;;;;;;;;;;;;;1051390;28;1888;-58
2022/11/06 02:43:01;;;;;;;;;;;;;;;;;;1046631;28;2007;-56
2022/11/06 02:43:41;;;;;;;;;;;;;;;;;;1047014;28;2344;-58
2022/11/06 02:44:27;;;;;;;;;;;;;;;;;;1050752;28;2442;-58
2022/11/06 02:44:59;;;;;;;;;;;;;;;;;;1050849;28;1774;-53
2022/11/06 02:45:30;;;;;;;;;;;;;;;;;;1049917;28;2232;-54
2022/11/06 02:46:04;;;;;;;;;;;;;;;;;;1050731;28;1743;-55
2022/11/06 02:46:39;;;;;;;;;;;;;;;;;;1050747;28;2218;-54
2022/11/06 02:47:11;;;;;;;;;;;;;;;;;;1050601;28;1689;-56
2022/11/06 02:47:41;;;;;;;;;;;;;;;;;;1050342;28;2163;-55
2022/11/06 02:48:13;;;;;;;;;;;;;;;;;;1050301;28;2445;-52
2022/11/06 02:48:46;;;;;;;;;;;;;;;;;;1050465;28;2529;-57
2022/11/06 02:49:19;;;;;;;;;;;;;;;;;;1045765;28;2113;-56
2022/11/06 02:49:52;;;;;;;;;;;;;;;;;;1048097;28;2336;-54
2022/11/06 02:50:25;;;;;;;;;;;;;;;;;;1049696;28;2184;-57
2022/11/06 02:50:57;;;;;;;;;;;;;;;;;;1049799;28;1675;-53
2022/11/06 02:51:29;;;;;;;;;;;;;;;;;;1051260;28;2056;-53
2022/11/06 02:52:03;;;;;;;;;;;;;;;;;;1049708;28;1556;-53
2022/11/06 02:52:46;;;;;;;;;;;;;;;;;;1050643;28;1920;-55
2022/11/06 02:53:19;;;;;;;;;;;;;;;;;;1050556;28;2336;-55
2022/11/06 02:53:49;;;;;;;;;;;;;;;;;;1049369;28;2099;-55
2022/11/06 02:54:21;;;;;;;;;;;;;;;;;;1051132;28;1691;-55
2022/11/06 02:54:57;;;;;;;;;;;;;;;;;;1050656;28;2027;-56
2022/11/06 02:55:33;;;;;;;;;;;;;;;;;;1049098;28;2572;-55
2022/11/06 02:56:06;;;;;;;;;;;;;;;;;;1051624;28;2000;-56
2022/11/06 02:56:39;;;;;;;;;;;;;;;;;;1050214;28;2244;-52
2022/11/06 02:57:13;;;;;;;;;;;;;;;;;;1051237;28;1891;-57
2022/11/06 02:57:46;;;;;;;;;;;;;;;;;;1051198;28;2064;-54
2022/11/06 02:58:18;;;;;;;;;;;;;;;;;;1051225;28;1816;-55
2022/11/06 02:58:52;;;;;;;;;;;;;;;;;;1049914;28;2934;-56
2022/11/06 02:59:48;;;;;;;;;;;;;;;;;;1050651;28;2636;-54
2022/11/06 03:00:19;;;;;;;;;;;;;;;;;;1041827;28;2157;-55
2022/11/06 03:00:52;;;;;;;;;;;;;;;;;;1042031;28;1839;-52
2022/11/06 03:01:29;;;;;;;;;;;;;;;;;;1040706;28;1950;-56
2022/11/06 03:02:02;;;;;;;;;;;;;;;;;;1042274;28;1795;-55
2022/11/06 03:02:39;;;;;;;;;;;;;;;;;;1043719;28;1622;-54
2022/11/06 03:03:25;;;;;;;;;;;;;;;;;;1048751;28;2393;-56
2022/11/06 03:03:56;;;;;;;;;;;;;;;;;;1051184;28;3497;-56
2022/11/06 03:04:34;;;;;;;;;;;;;;;;;;1051232;28;2070;-55
2022/11/06 03:05:07;;;;;;;;;;;;;;;;;;1049413;28;2408;-58
2022/11/06 03:05:43;;;;;;;;;;;;;;;;;;1050155;28;2295;-54
2022/11/06 03:06:16;;;;;;;;;;;;;;;;;;1050328;28;2119;-51
2022/11/06 03:07:13;;;;;;;;;;;;;;;;;;1049365;28;1974;-55
2022/11/06 03:07:50;;;;;;;;;;;;;;;;;;1045528;28;1704;-55
2022/11/06 03:08:27;;;;;;;;;;;;;;;;;;1050703;28;1665;-51
2022/11/06 03:09:02;;;;;;;;;;;;;;;;;;1050338;28;2416;-57
2022/11/06 03:09:32;;;;;;;;;;;;;;;;;;1049935;28;2129;-54
2022/11/06 03:10:03;;;;;;;;;;;;;;;;;;1050853;28;2077;-55
2022/11/06 03:10:39;;;;;;;;;;;;;;;;;;1051232;28;1419;-53
2022/11/06 03:11:32;;;;;;;;;;;;;;;;;;1050209;28;1962;-52
2022/11/06 03:12:22;;;;;;;;;;;;;;;;;;1049163;28;2360;-52
2022/11/06 03:12:57;;;;;;;;;;;;;;;;;;1050245;28;2385;-57
2022/11/06 03:13:34;;;;;;;;;;;;;;;;;;1048959;28;2413;-51
2022/11/06 03:14:07;;;;;;;;;;;;;;;;;;1051036;28;2331;-56
2022/11/06 03:14:43;;;;;;;;;;;;;;;;;;1050405;28;1855;-55
2022/11/06 03:15:19;;;;;;;;;;;;;;;;;;1048450;28;2541;-55
2022/11/06 03:16:10;;;;;;;;;;;;;;;;;;1049733;28;1625;-56
2022/11/06 03:16:48;;;;;;;;;;;;;;;;;;1048452;28;2286;-54
2022/11/06 03:17:29;;;;;;;;;;;;;;;;;;1050066;28;2973;-59
2022/11/06 03:18:09;;;;;;;;;;;;;;;;;;1050502;28;2035;-50
2022/11/06 03:18:49;;;;;;;;;;;;;;;;;;1049228;28;2269;-55
2022/11/06 03:19:24;;;;;;;;;;;;;;;;;;1047806;28;2429;-55
2022/11/06 03:19:59;;;;;;;;;;;;;;;;;;1049862;28;2367;-58
2022/11/06 03:20:38;;;;;;;;;;;;;;;;;;1049770;28;1992;-57
2022/11/06 03:21:09;;;;;;;;;;;;;;;;;;1050083;28;1807;-59
2022/11/06 03:21:52;;;;;;;;;;;;;;;;;;1049436;28;2143;-56
2022/11/06 03:22:36;;;;;;;;;;;;;;;;;;1048723;28;2526;-57
2022/11/06 03:23:10;;;;;;;;;;;;;;;;;;1048896;28;2383;-53
2022/11/06 03:23:43;;;;;;;;;;;;;;;;;;1050560;28;2385;-55
2022/11/06 03:24:17;;;;;;;;;;;;;;;;;;1048912;28;2075;-52
2022/11/06 03:25:00;;;;;;;;;;;;;;;;;;1050381;28;1795;-55
2022/11/06 03:25:34;;;;;;;;;;;;;;;;;;1050403;28;2557;-56
2022/11/06 03:26:16;;;;;;;;;;;;;;;;;;1048604;28;2612;-56
2022/11/06 03:26:48;;;;;;;;;;;;;;;;;;1050251;28;2389;-53
2022/11/06 03:27:24;;;;;;;;;;;;;;;;;;1049901;28;2495;-51
2022/11/06 03:28:04;;;;;;;;;;;;;;;;;;1049541;28;2271;-57
2022/11/06 03:28:36;;;;;;;;;;;;;;;;;;1048934;28;2582;-56
2022/11/06 03:29:09;;;;;;;;;;;;;;;;;;1050795;28;1844;-57
2022/11/06 03:29:43;;;;;;;;;;;;;;;;;;1049112;28;1617;-53
2022/11/06 03:30:13;;;;;;;;;;;;;;;;;;1049278;28;2349;-52
2022/11/06 03:30:46;;;;;;;;;;;;;;;;;;1050780;28;1689;-55
2022/11/06 03:31:18;;;;;;;;;;;;;;;;;;1050290;28;2483;-57
2022/11/06 03:31:50;;;;;;;;;;;;;;;;;;1048197;28;2426;-56
2022/11/06 03:32:32;;;;;;;;;;;;;;;;;;1050933;28;1965;-54
2022/11/06 03:33:21;;;;;;;;;;;;;;;;;;1049299;28;1960;-55
2022/11/06 03:33:53;;;;;;;;;;;;;;;;;;1050587;28;1644;-58
2022/11/06 03:34:43;;;;;;;;;;;;;;;;;;1048614;28;2515;-52
2022/11/06 03:35:29;;;;;;;;;;;;;;;;;;1050498;28;1950;-57
2022/11/06 03:36:07;;;;;;;;;;;;;;;;;;1049986;28;1952;-54
2022/11/06 03:36:43;;;;;;;;;;;;;;;;;;1048411;28;2073;-55
2022/11/06 03:37:16;;;;;;;;;;;;;;;;;;1049313;28;2457;-55
2022/11/06 03:37:52;;;;;;;;;;;;;;;;;;1049121;28;2876;-53
2022/11/06 03:38:25;;;;;;;;;;;;;;;;;;1049060;28;1641;-54
2022/11/06 03:39:01;;;;;;;;;;;;;;;;;;1050142;28;2087;-53
2022/11/06 03:39:33;;;;;;;;;;;;;;;;;;1049844;28;2088;-57
2022/11/06 03:40:07;;;;;;;;;;;;;;;;;;1050323;28;1967;-57
2022/11/06 03:40:40;;;;;;;;;;;;;;;;;;1050179;28;2168;-59
2022/11/06 03:41:13;;;;;;;;;;;;;;;;;;1050611;28;1671;-57
2022/11/06 03:41:43;;;;;;;;;;;;;;;;;;1050009;28;2373;-55
2022/11/06 03:42:16;;;;;;;;;;;;;;;;;;1051012;28;1688;-58
2022/11/06 03:42:48;;;;;;;;;;;;;;;;;;1050352;28;2427;-57
2022/11/06 03:43:21;;;;;;;;;;;;;;;;;;1049789;28;2380;-55
2022/11/06 03:44:06;;;;;;;;;;;;;;;;;;1053317;28;1827;-56
2022/11/06 03:44:45;;;;;;;;;;;;;;;;;;1051018;28;2467;-55
2022/11/06 03:45:18;;;;;;;;;;;;;;;;;;1049154;28;2303;-56
2022/11/06 03:45:50;;;;;;;;;;;;;;;;;;1047805;28;2780;-57
2022/11/06 03:46:23;;;;;;;;;;;;;;;;;;1052111;28;2163;-53
2022/11/06 03:47:01;;;;;;;;;;;;;;;;;;1052644;28;2553;-57
2022/11/06 03:47:51;;;;;;;;;;;;;;;;;;1054552;28;1864;-54
2022/11/06 03:48:25;;;;;;;;;;;;;;;;;;1053264;28;2554;-57
2022/11/06 03:48:58;;;;;;;;;;;;;;;;;;1053214;28;2011;-53
2022/11/06 03:49:34;;;;;;;;;;;;;;;;;;1053508;28;2743;-55
2022/11/06 03:50:08;;;;;;;;;;;;;;;;;;1052419;28;2426;-55
2022/11/06 03:50:41;;;;;;;;;;;;;;;;;;1052623;28;2763;-56
2022/11/06 03:51:17;;;;;;;;;;;;;;;;;;1055747;28;1850;-57
2022/11/06 03:51:51;;;;;;;;;;;;;;;;;;1055653;28;1855;-57
2022/11/06 03:52:30;;;;;;;;;;;;;;;;;;1052671;28;2516;-57
2022/11/06 03:53:12;;;;;;;;;;;;;;;;;;1053152;28;2292;-53
2022/11/06 03:53:51;;;;;;;;;;;;;;;;;;1055957;28;1692;-53
2022/11/06 03:54:24;;;;;;;;;;;;;;;;;;1054242;28;2294;-56